Time;durP1;ratioP1;P1;durP2;ratioP2;P2;SDS_P1;SDS_P2;PMS_P1;PMS_P2;Temp;Humidity;BMP_temperature;BMP_pressure;BME280_temperature;BME280_humidity;BME280_pressure;Samples;Min_cycle;Max_cycle;Signal;HPM_P1;HPM_P2
2023/01/24 00:01:22;;;;;;;;;24.80;24.80;;;;;;;;5310868;27;8810;-75
2023/01/24 00:03:53;;;;;;;;;23.80;21.60;;;;;;;;5275669;27;9511;-74
2023/01/24 00:06:24;;;;;;;;;18.25;17.50;;;;;;;;5275243;27;8834;-73
2023/01/24 00:08:55;;;;;;;;;28.00;27.00;;;;;;;;5275934;27;11504;-75
2023/01/24 00:11:26;;;;;;;;;30.20;28.40;;;;;;;;5311278;27;8932;-76
2023/01/24 00:13:57;;;;;;;;;27.20;25.40;;;;;;;;5292477;27;8766;-75
2023/01/24 00:16:28;;;;;;;;;22.20;20.00;;;;;;;;5310237;27;8774;-75
2023/01/24 00:19:00;;;;;;;;;44.60;41.60;;;;;;;;5310362;27;8766;-76
2023/01/24 00:21:30;;;;;;;;;35.40;34.80;;;;;;;;5292019;27;8829;-76
2023/01/24 00:24:02;;;;;;;;;28.80;28.80;;;;;;;;5275697;27;8762;-77
2023/01/24 00:26:32;;;;;;;;;36.00;33.50;;;;;;;;5275767;27;8778;-77
2023/01/24 00:29:05;;;;;;;;;34.40;34.20;;;;;;;;5291688;27;8794;-76
2023/01/24 00:31:36;;;;;;;;;30.80;28.20;;;;;;;;5291459;27;8790;-76
2023/01/24 00:34:25;;;;;;;;;24.60;22.80;;;;;;;;5278246;27;8770;-76
2023/01/24 00:36:56;;;;;;;;;24.25;23.50;;;;;;;;5311115;27;8766;-76
2023/01/24 00:39:28;;;;;;;;;25.20;24.60;;;;;;;;5309514;27;10188;-76
2023/01/24 00:42:17;;;;;;;;;30.00;29.20;;;;;;;;5309103;27;9432;-76
2023/01/24 00:44:48;;;;;;;;;30.40;28.80;;;;;;;;5274739;27;8786;-76
2023/01/24 00:47:19;;;;;;;;;19.80;19.60;;;;;;;;5291691;27;8762;-75
2023/01/24 00:49:50;;;;;;;;;30.00;27.60;;;;;;;;5291872;27;8770;-75
2023/01/24 00:52:21;;;;;;;;;25.20;23.80;;;;;;;;5274875;27;9448;-76
2023/01/24 00:54:53;;;;;;;;;27.60;27.40;;;;;;;;5309896;27;8782;-76
2023/01/24 00:57:25;;;;;;;;;30.80;30.80;;;;;;;;5291701;27;8793;-75
2023/01/24 00:59:56;;;;;;;;;24.80;24.80;;;;;;;;5274550;27;9492;-76
2023/01/24 01:02:27;;;;;;;;;25.80;25.00;;;;;;;;5291975;27;8798;-76
2023/01/24 01:04:58;;;;;;;;;28.60;28.40;;;;;;;;5308827;27;9414;-76
2023/01/24 01:07:29;;;;;;;;;21.00;20.60;;;;;;;;5274592;27;8804;-75
2023/01/24 01:10:00;;;;;;;;;15.00;13.80;;;;;;;;5274378;27;8778;-76
2023/01/24 01:12:31;;;;;;;;;28.40;22.40;;;;;;;;5309936;27;8863;-76
2023/01/24 01:15:02;;;;;;;;;25.60;25.60;;;;;;;;5308559;27;8770;-76
2023/01/24 01:17:34;;;;;;;;;24.00;23.20;;;;;;;;5274296;27;8798;-75
2023/01/24 01:20:05;;;;;;;;;25.40;23.60;;;;;;;;5274474;27;8850;-74
2023/01/24 01:22:55;;;;;;;;;16.00;16.00;;;;;;;;5291541;27;8797;-75
2023/01/24 01:25:26;;;;;;;;;17.60;16.80;;;;;;;;5291014;27;8779;-75
2023/01/24 01:27:57;;;;;;;;;25.40;25.40;;;;;;;;5291532;27;8770;-75
2023/01/24 01:30:28;;;;;;;;;19.00;17.40;;;;;;;;5309538;27;8782;-75
2023/01/24 01:32:59;;;;;;;;;19.40;19.00;;;;;;;;5291075;27;8778;-78
2023/01/24 01:35:30;;;;;;;;;29.60;26.60;;;;;;;;5291216;27;8797;-78
2023/01/24 01:38:20;;;;;;;;;25.20;23.80;;;;;;;;5290920;27;8777;-78
2023/01/24 01:41:12;;;;;;;;;22.60;22.00;;;;;;;;5277077;27;8802;-72
2023/01/24 01:44:37;;;;;;;;;24.40;22.20;;;;;;;;5291473;27;8793;-72
2023/01/24 01:46:43;;;;;;;;;11.40;11.20;;;;;;;;5313756;27;8810;-73
2023/01/24 01:49:20;;;;;;;;;22.00;22.00;;;;;;;;5296087;27;8805;-72
2023/01/24 01:52:10;;;;;;;;;21.60;20.20;;;;;;;;5280707;27;8909;-73
2023/01/24 01:54:44;;;;;;;;;18.60;17.80;;;;;;;;5295066;27;8786;-73
2023/01/24 01:57:20;;;;;;;;;18.40;18.40;;;;;;;;5313377;27;8857;-73
2023/01/24 02:00:11;;;;;;;;;13.40;13.00;;;;;;;;5294891;27;8767;-73
2023/01/24 02:02:52;;;;;;;;;15.00;15.00;;;;;;;;5295510;27;9700;-73
2023/01/24 02:05:24;;;;;;;;;15.80;15.80;;;;;;;;5288452;28;8837;-72
2023/01/24 02:08:18;;;;;;;;;15.80;14.60;;;;;;;;5291518;28;8809;-72
2023/01/24 02:13:43;;;;;;;;;12.60;12.20;;;;;;;;5273739;28;8759;-72
2023/01/24 02:16:14;;;;;;;;;15.20;15.20;;;;;;;;5256917;28;8803;-72
2023/01/24 02:18:46;;;;;;;;;12.20;12.20;;;;;;;;5291977;28;8779;-73
2023/01/24 02:21:17;;;;;;;;;12.20;10.80;;;;;;;;5273284;28;8810;-73
2023/01/24 02:24:10;;;;;;;;;25.00;25.00;;;;;;;;5292745;28;8799;-72
2023/01/24 02:26:42;;;;;;;;;24.00;23.00;;;;;;;;5274006;28;8873;-73
2023/01/24 02:29:14;;;;;;;;;15.60;15.60;;;;;;;;5273597;28;9454;-75
2023/01/24 02:32:06;;;;;;;;;16.20;16.20;;;;;;;;5255961;28;8795;-74
2023/01/24 02:34:37;;;;;;;;;22.80;21.60;;;;;;;;5256334;28;8779;-75
2023/01/24 02:37:11;;;;;;;;;17.60;15.00;;;;;;;;5273162;28;9497;-74
2023/01/24 02:40:03;;;;;;;;;19.80;19.40;;;;;;;;5290207;28;9353;-73
2023/01/24 02:42:54;;;;;;;;;26.40;22.00;;;;;;;;5275653;28;8791;-73
2023/01/24 02:45:29;;;;;;;;;21.40;21.40;;;;;;;;5255817;28;8786;-73
2023/01/24 02:48:01;;;;;;;;;24.80;23.80;;;;;;;;5272922;28;8775;-73
2023/01/24 02:53:29;;;;;;;;;25.80;25.20;;;;;;;;5273049;28;8771;-73
2023/01/24 02:58:54;;;;;;;;;24.40;24.00;;;;;;;;5273205;28;8795;-76
2023/01/24 03:01:27;;;;;;;;;22.80;22.20;;;;;;;;5289809;28;8822;-79
2023/01/24 03:03:59;;;;;;;;;23.40;22.60;;;;;;;;5272859;28;8779;-77
2023/01/24 03:06:30;;;;;;;;;21.20;21.20;;;;;;;;5306219;27;8836;-73
2023/01/24 03:09:17;;;;;;;;;19.80;18.40;;;;;;;;5311789;27;8782;-73
2023/01/24 03:11:50;;;;;;;;;25.20;23.80;;;;;;;;5294043;27;8810;-72
2023/01/24 03:36:19;;;;;;;;;26.60;23.40;;;;;;;;5293330;27;8766;-72
2023/01/24 03:41:42;;;;;;;;;32.40;29.60;;;;;;;;5293440;27;8798;-70
2023/01/24 03:44:13;;;;;;;;;28.80;27.60;;;;;;;;5293190;27;8778;-73
2023/01/24 03:46:45;;;;;;;;;16.60;16.60;;;;;;;;5292739;27;8886;-72
2023/01/24 03:52:42;;;;;;;;;22.80;21.60;;;;;;;;5292881;27;8778;-72
2023/01/24 03:55:13;;;;;;;;;21.80;21.80;;;;;;;;5293583;27;8782;-72
2023/01/24 03:57:47;;;;;;;;;25.20;24.60;;;;;;;;5292504;27;8867;-72
2023/01/24 04:00:20;;;;;;;;;22.40;22.40;;;;;;;;5275791;27;8774;-72
2023/01/24 04:03:00;;;;;;;;;19.20;18.20;;;;;;;;5309726;27;9628;-73
2023/01/24 04:05:34;;;;;;;;;28.20;25.40;;;;;;;;5269092;28;8811;-71
2023/01/24 04:08:05;;;;;;;;;18.80;15.40;;;;;;;;5271264;28;8771;-70
2023/01/24 04:10:37;;;;;;;;;25.00;22.80;;;;;;;;5270861;28;8855;-71
2023/01/24 04:13:09;;;;;;;;;18.40;18.40;;;;;;;;5271974;28;8859;-71
2023/01/24 04:15:40;;;;;;;;;58.80;52.00;;;;;;;;5288760;28;8905;-71
2023/01/24 04:18:30;;;;;;;;;29.20;25.40;;;;;;;;5274483;28;8759;-71
2023/01/24 04:21:19;;;;;;;;;23.60;22.00;;;;;;;;5271594;28;9461;-71
2023/01/24 04:23:51;;;;;;;;;23.80;23.20;;;;;;;;5289978;28;8899;-72
2023/01/24 04:26:23;;;;;;;;;18.20;16.60;;;;;;;;5271581;28;8783;-70
2023/01/24 04:28:56;;;;;;;;;21.80;19.20;;;;;;;;5270946;28;8801;-71
2023/01/24 04:31:27;;;;;;;;;30.80;29.20;;;;;;;;5270862;28;8994;-73
2023/01/24 04:34:16;;;;;;;;;20.00;16.60;;;;;;;;5256693;28;9481;-71
2023/01/24 04:36:48;;;;;;;;;29.20;29.20;;;;;;;;5254045;28;8858;-70
2023/01/24 04:39:19;;;;;;;;;31.40;31.00;;;;;;;;5253796;28;8795;-72
2023/01/24 04:42:10;;;;;;;;;32.80;30.40;;;;;;;;5269652;28;8795;-71
2023/01/24 04:44:43;;;;;;;;;38.80;35.40;;;;;;;;5270434;28;8790;-71
2023/01/24 04:47:16;;;;;;;;;36.00;30.40;;;;;;;;5288844;28;8801;-71
2023/01/24 04:49:47;;;;;;;;;40.80;35.00;;;;;;;;5287478;28;8763;-71
2023/01/24 04:56:46;;;;;;;;;26.00;22.80;;;;;;;;5288941;28;8719;-72
2023/01/24 04:59:17;;;;;;;;;52.20;47.20;;;;;;;;5253991;28;8783;-73
2023/01/24 05:01:51;;;;;;;;;46.80;43.60;;;;;;;;5270430;28;8941;-75
2023/01/24 05:04:40;;;;;;;;;53.60;49.00;;;;;;;;5270548;28;8815;-72
2023/01/24 05:07:11;;;;;;;;;36.40;34.80;;;;;;;;5308904;27;8825;-71
2023/01/24 05:09:44;;;;;;;;;38.60;36.40;;;;;;;;5291118;27;8798;-72
2023/01/24 05:12:16;;;;;;;;;32.20;30.40;;;;;;;;5292158;27;8814;-72
2023/01/24 05:15:06;;;;;;;;;32.20;30.00;;;;;;;;5308546;27;8778;-69
2023/01/24 05:17:55;;;;;;;;;44.20;39.60;;;;;;;;5310378;27;8877;-71
2023/01/24 05:20:29;;;;;;;;;74.20;56.40;;;;;;;;5307823;27;8767;-68
2023/01/24 05:23:01;;;;;;;;;38.20;31.40;;;;;;;;5308343;27;8936;-67
2023/01/24 05:25:50;;;;;;;;;56.80;48.00;;;;;;;;5291734;27;8746;-69
2023/01/24 05:28:40;;;;;;;;;34.60;33.20;;;;;;;;5290843;27;8787;-69
2023/01/24 05:31:11;;;;;;;;;53.60;44.60;;;;;;;;5308564;27;8991;-68
2023/01/24 05:38:06;;;;;;;;;19.80;18.80;;;;;;;;5309271;27;8682;-68
2023/01/24 05:40:39;;;;;;;;;18.60;18.60;;;;;;;;5274148;27;9465;-68
2023/01/24 05:43:11;;;;;;;;;30.60;25.40;;;;;;;;5274094;27;8790;-68
2023/01/24 05:45:43;;;;;;;;;26.60;25.40;;;;;;;;5290793;27;8774;-69
2023/01/24 05:48:14;;;;;;;;;64.00;48.60;;;;;;;;5301717;27;8788;-69
2023/01/24 05:55:08;;;;;;;;;35.00;30.40;;;;;;;;5330474;27;8799;-68
2023/01/24 05:57:48;;;;;;;;;31.20;27.80;;;;;;;;5313438;27;8764;-68
2023/01/24 06:00:20;;;;;;;;;26.75;26.75;;;;;;;;5298890;27;8794;-68
2023/01/24 06:03:11;;;;;;;;;25.00;23.20;;;;;;;;5320535;27;8786;-68
2023/01/24 06:05:49;;;;;;;;;23.60;23.20;;;;;;;;5311909;28;9657;-68
2023/01/24 06:08:22;;;;;;;;;28.60;28.60;;;;;;;;5270444;28;8882;-68
2023/01/24 06:10:53;;;;;;;;;101.50;77.75;;;;;;;;5252991;28;8869;-68
2023/01/24 06:13:26;;;;;;;;;37.00;34.00;;;;;;;;5252649;28;8895;-69
2023/01/24 06:16:00;;;;;;;;;27.25;26.50;;;;;;;;5273457;27;8921;-68
2023/01/24 06:18:34;;;;;;;;;23.80;23.20;;;;;;;;5308873;27;9617;-68
2023/01/24 06:21:16;;;;;;;;;29.00;23.40;;;;;;;;5273707;27;8810;-68
2023/01/24 06:28:29;;;;;;;;;18.60;16.40;;;;;;;;5308041;27;8710;-68
2023/01/24 06:31:09;;;;;;;;;15.40;15.40;;;;;;;;5310175;27;9668;-68
2023/01/24 06:38:14;;;;;;;;;19.60;19.00;;;;;;;;5312421;27;9515;-68
2023/01/24 06:45:09;;;;;;;;;18.00;17.40;;;;;;;;5312193;27;8723;-69
2023/01/24 06:52:03;;;;;;;;;27.00;23.60;;;;;;;;5312205;27;8723;-68
2023/01/24 06:54:35;;;;;;;;;15.40;15.00;;;;;;;;5309746;27;8815;-69
2023/01/24 06:57:06;;;;;;;;;18.60;18.00;;;;;;;;5311144;27;8783;-68
2023/01/24 06:59:37;;;;;;;;;17.50;17.00;;;;;;;;5310824;27;8810;-69
2023/01/24 07:02:26;;;;;;;;;13.00;13.00;;;;;;;;5310993;27;9142;-69
2023/01/24 07:04:57;;;;;;;;;15.75;15.50;;;;;;;;5279059;27;8780;-67
2023/01/24 07:07:28;;;;;;;;;99.25;74.50;;;;;;;;5315542;27;11382;-70
2023/01/24 07:14:22;;;;;;;;;13.00;11.40;;;;;;;;5333276;27;8714;-68
2023/01/24 07:17:12;;;;;;;;;13.40;13.40;;;;;;;;5317727;27;8754;-68
2023/01/24 07:19:43;;;;;;;;;14.40;14.40;;;;;;;;5297304;27;8782;-69
2023/01/24 07:22:14;;;;;;;;;17.00;16.80;;;;;;;;5333217;27;8796;-69
2023/01/24 07:24:46;;;;;;;;;10.80;10.80;;;;;;;;5315066;27;8854;-69
2023/01/24 07:27:17;;;;;;;;;28.20;27.40;;;;;;;;5314694;27;8761;-69
2023/01/24 07:30:07;;;;;;;;;27.00;27.00;;;;;;;;5314946;27;8785;-69
2023/01/24 07:32:38;;;;;;;;;23.60;23.20;;;;;;;;5314639;27;8846;-70
2023/01/24 07:35:09;;;;;;;;;22.80;22.00;;;;;;;;5333333;27;8753;-70
2023/01/24 07:38:00;;;;;;;;;13.40;13.00;;;;;;;;5299707;27;8774;-69
2023/01/24 07:40:31;;;;;;;;;12.60;11.20;;;;;;;;5332823;27;8765;-68
2023/01/24 07:43:02;;;;;;;;;18.00;17.00;;;;;;;;5296175;27;8797;-67
2023/01/24 07:45:35;;;;;;;;;18.20;18.00;;;;;;;;5332916;27;8841;-68
2023/01/24 07:48:07;;;;;;;;;20.80;19.80;;;;;;;;5297488;27;8770;-67
2023/01/24 07:50:38;;;;;;;;;13.80;12.20;;;;;;;;5279842;27;8773;-67
2023/01/24 07:53:09;;;;;;;;;29.50;29.00;;;;;;;;5332716;27;8952;-67
2023/01/24 07:55:40;;;;;;;;;18.80;18.60;;;;;;;;5333039;27;12093;-67
2023/01/24 07:58:11;;;;;;;;;19.50;17.75;;;;;;;;5296997;27;8762;-68
2023/01/24 08:00:44;;;;;;;;;12.25;12.25;;;;;;;;5314417;27;10698;-68
2023/01/24 08:03:14;;;;;;;;;11.80;11.80;;;;;;;;5333277;27;11387;-70
2023/01/24 08:05:45;;;;;;;;;28.25;28.00;;;;;;;;5332788;27;8836;-67
2023/01/24 08:08:16;;;;;;;;;21.75;21.75;;;;;;;;5314162;27;11377;-69
2023/01/24 08:10:47;;;;;;;;;21.60;21.60;;;;;;;;5333472;27;8853;-69
2023/01/24 08:13:18;;;;;;;;;13.00;13.00;;;;;;;;5314426;27;8749;-67
2023/01/24 08:16:08;;;;;;;;;15.00;13.80;;;;;;;;5319295;27;9504;-67
2023/01/24 08:18:39;;;;;;;;;12.40;12.40;;;;;;;;5310884;27;8752;-68
2023/01/24 08:21:09;;;;;;;;;16.80;15.80;;;;;;;;5292486;27;8882;-67
2023/01/24 08:23:40;;;;;;;;;13.00;12.00;;;;;;;;5310998;27;8992;-67
2023/01/24 08:26:11;;;;;;;;;15.80;15.20;;;;;;;;5311300;27;8806;-69
2023/01/24 08:28:42;;;;;;;;;12.25;12.25;;;;;;;;5293143;27;8764;-68
2023/01/24 08:31:14;;;;;;;;;13.60;9.80;;;;;;;;5275589;27;8748;-68
2023/01/24 08:33:45;;;;;;;;;13.00;13.00;;;;;;;;5259292;27;8795;-68
2023/01/24 08:36:15;;;;;;;;;16.25;14.75;;;;;;;;5291851;27;8794;-68
2023/01/24 08:38:46;;;;;;;;;15.75;15.75;;;;;;;;5292620;27;8768;-68
2023/01/24 08:41:18;;;;;;;;;11.25;11.25;;;;;;;;5310128;27;9482;-68
2023/01/24 08:43:51;;;;;;;;;20.20;18.80;;;;;;;;5275428;27;8799;-68
2023/01/24 08:46:22;;;;;;;;;30.00;30.00;;;;;;;;5310088;27;8778;-67
2023/01/24 08:48:53;;;;;;;;;21.40;18.80;;;;;;;;5292449;27;8871;-68
2023/01/24 08:51:24;;;;;;;;;13.40;13.00;;;;;;;;5293300;27;8890;-68
2023/01/24 08:53:55;;;;;;;;;20.20;18.00;;;;;;;;5293024;27;8822;-67
2023/01/24 08:56:26;;;;;;;;;12.75;12.50;;;;;;;;5291825;27;8772;-70
2023/01/24 08:58:57;;;;;;;;;11.50;10.75;;;;;;;;5291847;27;11362;-69
2023/01/24 09:01:28;;;;;;;;;12.75;12.00;;;;;;;;5309166;27;11429;-70
2023/01/24 09:03:59;;;;;;;;;13.00;12.75;;;;;;;;5293161;27;10153;-70
2023/01/24 09:10:56;;;;;;;;;17.20;16.60;;;;;;;;5322648;27;8753;-71
2023/01/24 09:17:50;;;;;;;;;13.60;11.80;;;;;;;;5330890;27;8700;-69
2023/01/24 09:20:22;;;;;;;;;13.00;12.75;;;;;;;;5312235;27;8772;-69
2023/01/24 09:22:52;;;;;;;;;30.80;30.20;;;;;;;;5312110;27;8822;-70
2023/01/24 09:25:23;;;;;;;;;34.50;32.25;;;;;;;;5278395;27;8776;-71
2023/01/24 09:27:55;;;;;;;;;9.40;9.40;;;;;;;;5295364;27;10898;-71
2023/01/24 09:30:44;;;;;;;;;7.40;7.40;;;;;;;;5312762;27;8792;-71
2023/01/24 09:33:17;;;;;;;;;10.00;10.00;;;;;;;;5312312;27;8864;-71
2023/01/24 09:35:52;;;;;;;;;10.80;10.80;;;;;;;;5295229;27;10077;-70
2023/01/24 09:38:24;;;;;;;;;14.00;14.00;;;;;;;;5312755;27;8768;-70
2023/01/24 09:41:23;;;;;;;;;11.60;10.40;;;;;;;;5314899;27;8792;-71
2023/01/24 09:43:59;;;;;;;;;6.40;6.40;;;;;;;;5312393;27;8848;-70
2023/01/24 09:46:50;;;;;;;;;4.40;4.40;;;;;;;;5313297;27;8776;-70
2023/01/24 09:49:27;;;;;;;;;10.00;10.00;;;;;;;;5277438;27;8760;-70
2023/01/24 09:51:58;;;;;;;;;13.80;13.80;;;;;;;;5331114;27;9478;-70
2023/01/24 09:54:53;;;;;;;;;16.00;15.40;;;;;;;;5315016;27;8840;-71
2023/01/24 09:57:29;;;;;;;;;13.80;13.80;;;;;;;;5330822;27;8748;-71
2023/01/24 10:00:10;;;;;;;;;9.60;9.60;;;;;;;;5295340;27;8903;-71
2023/01/24 10:02:42;;;;;;;;;13.00;13.00;;;;;;;;5312630;27;8796;-70
2023/01/24 10:05:16;;;;;;;;;18.20;17.40;;;;;;;;5313622;27;9531;-70
2023/01/24 10:07:56;;;;;;;;;25.00;23.20;;;;;;;;5300216;27;8772;-70
2023/01/24 10:10:53;;;;;;;;;46.40;45.00;;;;;;;;5315967;27;8760;-69
2023/01/24 10:13:34;;;;;;;;;18.20;18.20;;;;;;;;5296598;27;8803;-68
2023/01/24 10:16:12;;;;;;;;;13.00;12.00;;;;;;;;5316051;27;8849;-68
2023/01/24 10:18:49;;;;;;;;;13.60;13.60;;;;;;;;5335162;27;8768;-70
2023/01/24 10:21:46;;;;;;;;;178.67;130.00;;;;;;;;5299497;27;8813;-70
2023/01/24 10:24:22;;;;;;;;;22.40;22.40;;;;;;;;5310578;27;9812;-69
2023/01/24 10:27:27;;;;;;;;;21.80;19.00;;;;;;;;5335079;27;8752;-67
2023/01/24 10:30:01;;;;;;;;;14.60;14.60;;;;;;;;5334549;27;8774;-67
2023/01/24 10:32:34;;;;;;;;;9.20;8.80;;;;;;;;5334124;27;8768;-68
2023/01/24 10:35:13;;;;;;;;;15.60;15.60;;;;;;;;5315570;27;8799;-68
2023/01/24 10:37:47;;;;;;;;;14.00;14.00;;;;;;;;5299125;27;8768;-69
2023/01/24 10:40:18;;;;;;;;;18.00;16.20;;;;;;;;5334049;27;8776;-68
2023/01/24 10:42:49;;;;;;;;;15.75;15.00;;;;;;;;5334115;27;8822;-68
2023/01/24 10:45:20;;;;;;;;;18.00;16.50;;;;;;;;5334470;27;10150;-68
2023/01/24 10:47:59;;;;;;;;;36.75;35.50;;;;;;;;5315109;27;11433;-70
2023/01/24 10:50:44;;;;;;;;;20.20;19.80;;;;;;;;5316218;27;8768;-71
2023/01/24 10:53:25;;;;;;;;;16.80;16.60;;;;;;;;5334027;27;8784;-68
2023/01/24 10:56:01;;;;;;;;;19.40;19.40;;;;;;;;5333916;27;8788;-68
2023/01/24 10:58:32;;;;;;;;;15.60;15.60;;;;;;;;5315856;27;8772;-68
2023/01/24 11:01:07;;;;;;;;;13.50;13.50;;;;;;;;5314940;27;8764;-67
2023/01/24 11:03:40;;;;;;;;;13.00;13.00;;;;;;;;5315571;27;8760;-68
2023/01/24 11:06:21;;;;;;;;;76.40;59.80;;;;;;;;5298553;27;8808;-67
2023/01/24 11:08:53;;;;;;;;;23.20;22.00;;;;;;;;5315737;27;8832;-68
2023/01/24 11:15:48;;;;;;;;;11.60;11.60;;;;;;;;5332823;27;8745;-68
2023/01/24 11:18:27;;;;;;;;;12.00;11.60;;;;;;;;5297200;27;8883;-68
2023/01/24 11:21:24;;;;;;;;;11.80;11.80;;;;;;;;5314872;27;8781;-68
2023/01/24 11:24:04;;;;;;;;;12.40;12.40;;;;;;;;5296592;27;8879;-68
2023/01/24 11:26:37;;;;;;;;;28.40;26.40;;;;;;;;5314877;27;8795;-67
2023/01/24 11:29:17;;;;;;;;;22.40;22.40;;;;;;;;5314494;27;8904;-69
2023/01/24 11:31:51;;;;;;;;;23.60;22.40;;;;;;;;5314651;27;8764;-67
2023/01/24 11:34:28;;;;;;;;;36.40;33.60;;;;;;;;5314114;27;8779;-68
2023/01/24 11:37:11;;;;;;;;;33.60;31.80;;;;;;;;5314492;27;8744;-68
2023/01/24 11:40:11;;;;;;;;;35.80;30.60;;;;;;;;5295674;27;8828;-71
2023/01/24 11:42:45;;;;;;;;;35.20;33.80;;;;;;;;5318127;27;8806;-70
2023/01/24 11:49:57;;;;;;;;;27.60;27.00;;;;;;;;5332555;27;8689;-69
2023/01/24 11:52:47;;;;;;;;;26.00;25.60;;;;;;;;5314198;27;8891;-70
2023/01/24 11:55:26;;;;;;;;;18.20;16.00;;;;;;;;5332749;27;8760;-70
2023/01/24 11:58:12;;;;;;;;;26.00;25.40;;;;;;;;5314331;27;8780;-70
2023/01/24 12:01:05;;;;;;;;;21.00;19.80;;;;;;;;5315085;27;8772;-69
2023/01/24 12:04:12;;;;;;;;;38.80;33.80;;;;;;;;5311221;27;8829;-70
2023/01/24 12:10:43;;;;;;;;;32.80;32.00;;;;;;;;5313285;27;8807;-70
2023/01/24 12:17:38;;;;;;;;;25.00;25.00;;;;;;;;5319740;27;8778;-70
2023/01/24 12:20:21;;;;;;;;;17.80;16.40;;;;;;;;5292701;27;8793;-69
2023/01/24 12:22:54;;;;;;;;;23.40;22.80;;;;;;;;5293076;27;8865;-69
2023/01/24 12:25:27;;;;;;;;;15.00;14.20;;;;;;;;5292635;27;8804;-69
2023/01/24 12:28:00;;;;;;;;;20.80;19.40;;;;;;;;5311506;27;8950;-69
2023/01/24 12:30:42;;;;;;;;;23.60;20.60;;;;;;;;5292566;27;8762;-68
2023/01/24 12:33:27;;;;;;;;;48.80;45.20;;;;;;;;5298980;27;8792;-68
2023/01/24 12:36:00;;;;;;;;;32.00;28.60;;;;;;;;5313239;27;8796;-68
2023/01/24 12:38:38;;;;;;;;;27.60;22.00;;;;;;;;5312801;27;8780;-70
2023/01/24 12:41:12;;;;;;;;;28.20;27.40;;;;;;;;5312620;27;9471;-69
2023/01/24 12:44:03;;;;;;;;;29.80;29.80;;;;;;;;5312980;27;8778;-70
2023/01/24 12:46:36;;;;;;;;;25.60;25.20;;;;;;;;5279698;27;8825;-69
2023/01/24 12:49:26;;;;;;;;;29.80;29.20;;;;;;;;5313268;27;8772;-70
2023/01/24 12:51:59;;;;;;;;;37.80;35.40;;;;;;;;5331616;27;8760;-69
2023/01/24 12:54:32;;;;;;;;;16.40;15.80;;;;;;;;5330663;27;8799;-69
2023/01/24 12:57:22;;;;;;;;;73.40;54.00;;;;;;;;5295916;27;8768;-70
2023/01/24 12:59:53;;;;;;;;;36.80;36.00;;;;;;;;5295054;27;8756;-70
2023/01/24 13:02:36;;;;;;;;;33.60;32.20;;;;;;;;5313013;27;8804;-70
2023/01/24 13:05:26;;;;;;;;;34.40;31.60;;;;;;;;5312493;27;8773;-70
2023/01/24 13:08:15;;;;;;;;;26.80;24.60;;;;;;;;5295785;27;8926;-71
2023/01/24 13:11:21;;;;;;;;;68.60;54.80;;;;;;;;5331508;27;8758;-70
2023/01/24 13:13:57;;;;;;;;;45.20;43.00;;;;;;;;5223447;28;8780;-71
2023/01/24 13:16:42;;;;;;;;;27.00;27.00;;;;;;;;5317167;27;8788;-70
2023/01/24 13:19:15;;;;;;;;;30.60;29.60;;;;;;;;5278939;27;8761;-68
2023/01/24 13:22:22;;;;;;;;;25.20;23.60;;;;;;;;5330647;27;8800;-68
2023/01/24 13:24:56;;;;;;;;;32.40;30.00;;;;;;;;5331617;27;9487;-68
2023/01/24 13:27:36;;;;;;;;;32.40;30.20;;;;;;;;5312106;27;8880;-68
2023/01/24 13:30:10;;;;;;;;;20.20;19.80;;;;;;;;5331715;27;8800;-70
2023/01/24 13:32:41;;;;;;;;;33.20;27.80;;;;;;;;5312838;27;8849;-69
2023/01/24 13:35:31;;;;;;;;;32.20;31.40;;;;;;;;5315725;27;8857;-69
2023/01/24 13:38:18;;;;;;;;;27.20;26.20;;;;;;;;5277959;27;8762;-69
2023/01/24 13:41:15;;;;;;;;;43.80;40.80;;;;;;;;5299701;27;8779;-71
2023/01/24 13:43:46;;;;;;;;;22.20;20.20;;;;;;;;5290948;27;9470;-70
2023/01/24 13:46:17;;;;;;;;;18.60;18.00;;;;;;;;5277981;27;8760;-70
2023/01/24 13:49:16;;;;;;;;;14.20;13.40;;;;;;;;5313635;27;8775;-71
2023/01/24 13:51:50;;;;;;;;;16.40;16.40;;;;;;;;5278383;27;8783;-71
2023/01/24 13:54:36;;;;;;;;;18.00;16.00;;;;;;;;5313359;27;8768;-70
2023/01/24 13:57:10;;;;;;;;;16.60;16.00;;;;;;;;5295271;27;8791;-70
2023/01/24 13:59:43;;;;;;;;;15.40;15.40;;;;;;;;5278241;27;8782;-71
2023/01/24 14:02:36;;;;;;;;;15.00;15.00;;;;;;;;5281412;27;8918;-70
2023/01/24 14:05:28;;;;;;;;;19.80;19.00;;;;;;;;5282104;27;8836;-70
2023/01/24 14:08:04;;;;;;;;;22.80;21.40;;;;;;;;5299190;27;8775;-70
2023/01/24 14:10:39;;;;;;;;;21.00;19.80;;;;;;;;5333919;27;8796;-70
2023/01/24 14:17:39;;;;;;;;;23.60;21.00;;;;;;;;5334242;27;8705;-69
2023/01/24 14:24:26;;;;;;;;;16.00;15.00;;;;;;;;5308900;27;8920;-70
2023/01/24 14:30:55;;;;;;;;;22.20;19.40;;;;;;;;5311958;27;8790;-69
2023/01/24 14:33:33;;;;;;;;;17.60;15.80;;;;;;;;5276592;27;8790;-69
2023/01/24 14:36:10;;;;;;;;;22.80;21.80;;;;;;;;5329891;27;9499;-70
2023/01/24 14:42:13;;;;;;;;;30.80;27.40;;;;;;;;5315059;27;8914;-70
2023/01/24 14:53:24;;;;;;;;;14.20;14.20;;;;;;;;5314801;27;8756;-71
2023/01/24 14:55:59;;;;;;;;;19.60;18.60;;;;;;;;5298597;27;8849;-70
2023/01/24 14:58:30;;;;;;;;;22.00;22.00;;;;;;;;5314783;27;8810;-68
2023/01/24 15:05:56;;;;;;;;;20.40;18.20;;;;;;;;5331641;27;8783;-68
2023/01/24 15:08:27;;;;;;;;;15.00;13.60;;;;;;;;5294353;27;8789;-70
2023/01/24 15:15:22;;;;;;;;;21.80;20.60;;;;;;;;5311855;27;8746;-69
2023/01/24 15:22:21;;;;;;;;;17.60;17.20;;;;;;;;5311239;27;9456;-68
2023/01/24 15:24:57;;;;;;;;;20.20;20.20;;;;;;;;5311394;27;8770;-68
2023/01/24 15:31:51;;;;;;;;;17.20;17.20;;;;;;;;5311574;27;8790;-68
2023/01/24 15:34:23;;;;;;;;;15.60;14.80;;;;;;;;5275930;27;8781;-70
2023/01/24 15:37:02;;;;;;;;;12.40;11.80;;;;;;;;5292477;27;8782;-69
2023/01/24 15:48:21;;;;;;;;;14.60;14.60;;;;;;;;5293581;27;8782;-70
2023/01/24 15:51:10;;;;;;;;;1.00;1.00;;;;;;;;5311326;27;8847;-69
2023/01/24 15:53:42;;;;;;;;;16.40;15.40;;;;;;;;5293713;27;8785;-69
2023/01/24 15:56:18;;;;;;;;;20.60;18.40;;;;;;;;5311304;27;8755;-69
2023/01/24 15:59:25;;;;;;;;;9.60;9.60;;;;;;;;5293242;27;8844;-70
2023/01/24 16:02:20;;;;;;;;;21.40;20.20;;;;;;;;5290281;27;8816;-70
2023/01/24 16:04:52;;;;;;;;;16.60;15.40;;;;;;;;5310656;27;8901;-71
2023/01/24 16:12:04;;;;;;;;;13.80;13.80;;;;;;;;5311049;27;8798;-70
2023/01/24 16:14:35;;;;;;;;;16.00;15.60;;;;;;;;5311402;27;8847;-71
2023/01/24 16:17:06;;;;;;;;;19.40;15.20;;;;;;;;5311365;27;8776;-68
2023/01/24 16:19:37;;;;;;;;;22.00;21.50;;;;;;;;5310450;27;8925;-68
2023/01/24 16:22:08;;;;;;;;;25.80;23.20;;;;;;;;5310363;27;8826;-68
2023/01/24 16:24:39;;;;;;;;;34.25;30.50;;;;;;;;5310340;27;8779;-69
2023/01/24 16:27:13;;;;;;;;;36.00;32.00;;;;;;;;5292663;27;12155;-68
2023/01/24 16:29:44;;;;;;;;;13.40;12.20;;;;;;;;5309627;27;11411;-68
2023/01/24 16:41:14;;;;;;;;;18.20;17.40;;;;;;;;5310174;27;8715;-68
2023/01/24 16:43:45;;;;;;;;;27.00;25.50;;;;;;;;5308957;27;8811;-70
2023/01/24 16:46:17;;;;;;;;;16.25;14.75;;;;;;;;5309328;27;10637;-69
2023/01/24 16:48:48;;;;;;;;;15.80;14.20;;;;;;;;5309288;27;12165;-69
2023/01/24 16:51:19;;;;;;;;;12.80;12.80;;;;;;;;5308870;27;8775;-69
2023/01/24 16:53:52;;;;;;;;;23.60;20.80;;;;;;;;5274726;27;8775;-71
2023/01/24 16:56:45;;;;;;;;;11.80;10.60;;;;;;;;5294962;27;9518;-69
2023/01/24 16:59:15;;;;;;;;;20.60;20.60;;;;;;;;5308686;27;8807;-69
2023/01/24 17:01:46;;;;;;;;;20.75;20.75;;;;;;;;5310286;27;8843;-70
2023/01/24 17:04:17;;;;;;;;;21.20;21.20;;;;;;;;5291340;27;9485;-69
2023/01/24 17:06:48;;;;;;;;;12.25;12.25;;;;;;;;5308149;27;8847;-70
2023/01/24 17:09:19;;;;;;;;;13.75;13.75;;;;;;;;5291780;27;8779;-70
2023/01/24 17:12:08;;;;;;;;;18.40;18.40;;;;;;;;5309803;27;9140;-68
2023/01/24 17:14:58;;;;;;;;;16.40;15.80;;;;;;;;5310411;27;9539;-69
2023/01/24 17:17:50;;;;;;;;;19.00;18.60;;;;;;;;5310370;27;8810;-71
2023/01/24 17:20:39;;;;;;;;;17.20;17.20;;;;;;;;5309659;27;8759;-68
2023/01/24 17:23:10;;;;;;;;;22.20;21.60;;;;;;;;5309190;27;8807;-70
2023/01/24 17:25:41;;;;;;;;;36.25;33.25;;;;;;;;5309175;27;8782;-69
2023/01/24 17:28:12;;;;;;;;;23.00;21.75;;;;;;;;5308259;27;8779;-69
2023/01/24 17:30:43;;;;;;;;;19.00;19.00;;;;;;;;5309391;27;11453;-69
2023/01/24 17:33:14;;;;;;;;;15.50;15.00;;;;;;;;5309191;27;10792;-69
2023/01/24 17:35:45;;;;;;;;;24.25;24.25;;;;;;;;5291705;27;11395;-69
2023/01/24 17:38:16;;;;;;;;;18.50;18.25;;;;;;;;5307876;27;12128;-68
2023/01/24 17:41:05;;;;;;;;;25.00;23.80;;;;;;;;5308858;27;8778;-69
2023/01/24 17:43:36;;;;;;;;;12.50;12.50;;;;;;;;5309350;27;9174;-69
2023/01/24 17:46:08;;;;;;;;;24.75;21.50;;;;;;;;5307949;27;8930;-68
2023/01/24 17:48:39;;;;;;;;;16.20;15.80;;;;;;;;5291019;27;8790;-69
2023/01/24 17:51:19;;;;;;;;;12.00;11.60;;;;;;;;5307986;27;8856;-67
2023/01/24 17:53:50;;;;;;;;;16.00;15.20;;;;;;;;5309783;27;8787;-68
2023/01/24 17:56:20;;;;;;;;;18.25;16.50;;;;;;;;5307969;27;8790;-69
2023/01/24 17:58:51;;;;;;;;;21.75;21.50;;;;;;;;5307843;27;8787;-70
2023/01/24 18:01:22;;;;;;;;;16.50;16.50;;;;;;;;5307994;27;8752;-70
2023/01/24 18:03:53;;;;;;;;;17.20;17.20;;;;;;;;5290765;27;10947;-69
2023/01/24 18:06:24;;;;;;;;;16.00;16.00;;;;;;;;5307868;27;8805;-70